Time;durP1;ratioP1;P1;durP2;ratioP2;P2;SDS_P1;SDS_P2;PMS_P1;PMS_P2;Temp;Humidity;BMP_temperature;BMP_pressure;BME280_temperature;BME280_humidity;BME280_pressure;Samples;Min_cycle;Max_cycle;Signal;HPM_P1;HPM_P2
2023/05/19 00:00:45;;;;;;;3.00;2.40;;;;;;;10.54;77.87;101670.98;215972;1253;61250;-75
2023/05/19 00:05:44;;;;;;;2.20;2.00;;;;;;;10.53;77.98;101668.34;215906;1253;74430;-74
2023/05/19 00:10:38;;;;;;;2.20;2.00;;;;;;;10.50;78.10;101668.77;215992;1252;72601;-75
2023/05/19 00:15:31;;;;;;;4.70;2.50;;;;;;;10.48;77.91;101674.74;215966;1252;61477;-74
2023/05/19 00:20:27;;;;;;;2.20;1.90;;;;;;;10.46;77.70;101667.92;216002;1253;65448;-74
2023/05/19 00:25:19;;;;;;;3.30;2.10;;;;;;;10.46;77.79;101666.54;215945;1253;61298;-74
2023/05/19 00:30:13;;;;;;;6.60;2.40;;;;;;;10.46;77.84;101662.02;216024;1252;61225;-74
2023/05/19 00:35:06;;;;;;;2.20;2.00;;;;;;;10.46;77.58;101661.85;215895;1252;72554;-74
2023/05/19 00:39:59;;;;;;;2.60;1.90;;;;;;;10.46;77.59;101660.82;215967;1253;62802;-74
2023/05/19 00:44:52;;;;;;;2.80;2.20;;;;;;;10.44;77.30;101662.66;215852;1253;67135;-74
2023/05/19 00:49:45;;;;;;;1.80;1.60;;;;;;;10.41;77.07;101658.40;215978;1253;61365;-74
2023/05/19 00:54:38;;;;;;;2.10;1.80;;;;;;;10.40;77.36;101656.99;215984;1253;61269;-74
2023/05/19 00:59:31;;;;;;;2.70;2.00;;;;;;;10.41;77.53;101653.70;215990;1255;61268;-74
2023/05/19 01:04:25;;;;;;;2.50;1.70;;;;;;;10.41;77.33;101648.33;216062;1252;61363;-74
2023/05/19 01:09:18;;;;;;;3.70;1.80;;;;;;;10.40;77.35;101649.89;216209;1252;67590;-74
2023/05/19 01:14:11;;;;;;;2.10;1.40;;;;;;;10.38;77.29;101647.40;215939;1253;61317;-74
2023/05/19 01:19:24;;;;;;;2.20;2.00;;;;;;;10.38;77.34;101646.70;216213;1254;61369;-74
2023/05/19 01:24:54;;;;;;;3.50;2.20;;;;;;;10.36;77.38;101643.68;215952;1253;72659;-74
2023/05/19 01:30:08;;;;;;;2.60;1.60;;;;;;;10.34;77.62;101644.13;216064;1252;61233;-74
2023/05/19 01:35:04;;;;;;;2.80;1.90;;;;;;;10.34;77.64;101637.53;215812;1253;66855;-75
2023/05/19 01:39:57;;;;;;;2.50;1.80;;;;;;;10.30;77.59;101642.79;215980;1252;61337;-74
2023/05/19 01:44:52;;;;;;;2.50;1.90;;;;;;;10.30;77.77;101637.40;216097;1252;73406;-74
2023/05/19 01:49:44;;;;;;;1.70;1.60;;;;;;;10.29;77.93;101631.13;216012;1252;70678;-74
2023/05/19 01:54:37;;;;;;;2.10;1.80;;;;;;;10.27;77.86;101636.25;215974;1253;61232;-74
2023/05/19 01:59:56;;;;;;;2.70;1.70;;;;;;;10.24;78.12;101634.95;216142;1252;66265;-74
2023/05/19 02:05:07;;;;;;;2.40;1.90;;;;;;;10.23;78.30;101631.63;215944;1252;61269;-74
2023/05/19 02:10:11;;;;;;;3.00;2.20;;;;;;;10.22;78.31;101626.56;215971;1253;72642;-74
2023/05/19 02:15:06;;;;;;;3.30;1.90;;;;;;;10.20;78.26;101622.51;216044;1252;71700;-73
2023/05/19 02:19:59;;;;;;;5.70;1.90;;;;;;;10.19;78.47;101624.20;216065;1253;61360;-74
2023/05/19 02:24:52;;;;;;;2.10;1.90;;;;;;;10.18;78.68;101620.20;215980;1252;61231;-74
2023/05/19 02:29:45;;;;;;;2.20;2.00;;;;;;;10.17;78.72;101616.17;216054;1253;61359;-74
2023/05/19 02:34:38;;;;;;;2.70;2.30;;;;;;;10.16;78.77;101618.73;216090;1253;61253;-74
2023/05/19 02:39:33;;;;;;;3.90;2.40;;;;;;;10.15;78.87;101625.48;216078;1252;61674;-74
2023/05/19 02:44:27;;;;;;;2.50;2.20;;;;;;;10.13;78.83;101628.88;215902;1253;61252;-74
2023/05/19 02:49:21;;;;;;;3.80;2.50;;;;;;;10.11;78.99;101629.98;215835;1253;167443;-74
2023/05/19 02:54:14;;;;;;;4.80;2.60;;;;;;;10.09;79.44;101629.95;215955;1254;61238;-74
2023/05/19 02:59:07;;;;;;;2.80;2.50;;;;;;;10.08;79.58;101630.61;216048;1253;61293;-74
2023/05/19 03:04:00;;;;;;;6.50;3.10;;;;;;;10.08;79.57;101629.58;216123;1252;61308;-74
2023/05/19 03:08:54;;;;;;;3.60;3.20;;;;;;;10.09;79.71;101629.26;215945;1253;61352;-74
2023/05/19 03:13:47;;;;;;;3.30;3.00;;;;;;;10.11;79.98;101633.30;215951;1253;61355;-74
2023/05/19 03:18:41;;;;;;;4.10;3.10;;;;;;;10.13;80.09;101632.84;215903;1256;61805;-74
2023/05/19 03:23:34;;;;;;;3.60;3.10;;;;;;;10.15;79.99;101629.10;215925;1256;74793;-73
2023/05/19 03:28:28;;;;;;;5.40;3.50;;;;;;;10.17;80.23;101635.41;215881;1253;71449;-74
2023/05/19 03:33:22;;;;;;;3.10;2.80;;;;;;;10.20;80.32;101638.98;216054;1253;61245;-74
2023/05/19 03:38:16;;;;;;;5.20;3.60;;;;;;;10.23;80.15;101636.83;215854;1253;67861;-74
2023/05/19 03:43:19;;;;;;;5.00;4.50;;;;;;;10.26;80.25;101632.07;215956;1253;61257;-74
2023/05/19 03:48:17;;;;;;;3.90;3.50;;;;;;;10.31;80.25;101631.55;216061;1252;74681;-74
2023/05/19 03:53:32;;;;;;;5.00;3.50;;;;;;;10.35;80.18;101631.49;215954;1253;72342;-74
2023/05/19 03:58:25;;;;;;;5.10;3.60;;;;;;;10.36;80.43;101633.99;216070;1253;61252;-74
2023/05/19 04:03:18;;;;;;;3.80;3.40;;;;;;;10.36;80.39;101627.57;216030;1253;61378;-74
2023/05/19 04:08:12;;;;;;;5.50;3.80;;;;;;;10.36;80.28;101630.34;216033;1253;61215;-75
2023/05/19 04:13:05;;;;;;;4.60;4.10;;;;;;;10.40;80.35;101629.26;215947;1255;61279;-74
2023/05/19 04:17:58;;;;;;;4.30;3.90;;;;;;;10.43;80.34;101626.05;215973;1253;61387;-74
2023/05/19 04:22:51;;;;;;;4.80;4.30;;;;;;;10.44;80.33;101624.55;215871;1253;61259;-74
2023/05/19 04:27:44;;;;;;;4.80;4.30;;;;;;;10.47;80.38;101629.15;215873;1253;66275;-74
2023/05/19 04:32:38;;;;;;;5.30;3.90;;;;;;;10.52;80.27;101628.25;215923;1255;61350;-74
2023/05/19 04:37:31;;;;;;;5.60;4.20;;;;;;;10.56;80.17;101625.62;215916;1254;74775;-74
2023/05/19 04:42:29;;;;;;;5.50;4.90;;;;;;;10.64;80.34;101627.77;215773;1255;73703;-74
2023/05/19 04:47:26;;;;;;;5.20;4.00;;;;;;;10.72;80.20;101630.97;216000;1252;61223;-74
2023/05/19 04:52:21;;;;;;;5.90;3.40;;;;;;;10.80;80.06;101626.16;215659;1253;66156;-74
2023/05/19 04:57:15;;;;;;;4.30;3.50;;;;;;;10.83;80.02;101625.39;215760;1253;61382;-74
2023/05/19 05:02:08;;;;;;;5.20;3.90;;;;;;;10.83;79.85;101628.86;215756;1252;61266;-74
2023/05/19 05:07:02;;;;;;;3.50;3.20;;;;;;;10.86;80.30;101634.15;215878;1253;72533;-75
2023/05/19 05:11:55;;;;;;;3.70;3.40;;;;;;;10.84;80.06;101632.38;215989;1253;61563;-74
2023/05/19 05:16:50;;;;;;;4.00;3.10;;;;;;;10.86;79.93;101637.10;216064;1251;65826;-74
2023/05/19 05:21:46;;;;;;;;;;;;;;;10.87;79.84;101632.64;215718;1252;61265;-75
2023/05/19 05:26:41;;;;;;;5.40;3.30;;;;;;;10.92;79.81;101632.43;215825;1253;75203;-74
2023/05/19 05:31:35;;;;;;;3.90;3.00;;;;;;;11.00;79.82;101628.69;215691;1253;72951;-74
2023/05/19 05:36:30;;;;;;;3.70;2.60;;;;;;;11.10;79.60;101628.62;215771;1253;61307;-75
2023/05/19 05:41:26;;;;;;;3.20;2.70;;;;;;;11.18;79.51;101629.39;215609;1253;65219;-74
2023/05/19 05:46:19;;;;;;;4.00;3.00;;;;;;;11.28;79.30;101634.19;215861;1255;61355;-74
2023/05/19 05:51:13;;;;;;;2.70;2.40;;;;;;;11.33;79.00;101634.16;216010;1253;73425;-74
2023/05/19 05:56:08;;;;;;;5.70;2.90;;;;;;;11.40;78.89;101637.49;215873;1253;73431;-74
2023/05/19 06:01:10;;;;;;;2.70;2.50;;;;;;;11.56;78.66;101632.70;215999;1253;61328;-74
2023/05/19 06:06:04;;;;;;;2.60;2.40;;;;;;;11.75;78.46;101635.14;215991;1253;66948;-74
2023/05/19 06:10:57;;;;;;;3.90;2.40;;;;;;;11.93;78.06;101632.85;215949;1253;61383;-75
2023/05/19 06:15:52;;;;;;;3.30;2.40;;;;;;;11.96;77.68;101633.61;215937;1253;73338;-74
2023/05/19 06:20:50;;;;;;;2.80;2.60;;;;;;;11.86;77.85;101636.10;215910;1251;72693;-74
2023/05/19 06:25:42;;;;;;;2.70;2.40;;;;;;;11.78;77.92;101636.77;215932;1253;61208;-74
2023/05/19 06:30:36;;;;;;;2.80;2.20;;;;;;;11.72;77.91;101636.45;216107;1253;66575;-74
2023/05/19 06:36:01;;;;;;;3.00;2.70;;;;;;;11.72;78.22;101637.31;215734;1255;61333;-74
2023/05/19 06:40:55;;;;;;;4.30;3.20;;;;;;;11.80;78.20;101635.79;215998;1253;74917;-74
2023/05/19 06:45:48;;;;;;;7.30;3.10;;;;;;;11.84;78.03;101633.28;216166;1253;61249;-75
2023/05/19 06:50:41;;;;;;;3.70;2.60;;;;;;;11.94;77.77;101633.05;216033;1252;61226;-75
2023/05/19 06:55:34;;;;;;;4.10;2.50;;;;;;;12.01;77.42;101637.24;216942;1253;66744;-75
2023/05/19 07:00:44;;;;;;;6.50;3.00;;;;;;;12.06;77.21;101638.06;215960;1253;61703;-74
2023/05/19 07:05:38;;;;;;;4.00;2.30;;;;;;;12.08;77.03;101636.38;215935;1253;73224;-74
2023/05/19 07:10:31;;;;;;;5.50;2.80;;;;;;;12.06;76.86;101634.91;215983;1253;72873;-75
2023/05/19 07:15:24;;;;;;;4.00;2.30;;;;;;;12.02;76.97;101634.98;215988;1255;61247;-74
2023/05/19 07:20:18;;;;;;;3.40;3.00;;;;;;;12.06;77.17;101632.83;215920;1253;67034;-74
2023/05/19 07:25:11;;;;;;;5.90;3.10;;;;;;;12.07;76.92;101635.30;215878;1257;61350;-74
2023/05/19 07:30:05;;;;;;;5.70;2.60;;;;;;;12.08;76.71;101634.45;215771;1253;74740;-75
2023/05/19 07:34:58;;;;;;;5.30;3.40;;;;;;;12.11;76.58;101633.14;215844;1255;73379;-75
2023/05/19 07:39:51;;;;;;;4.90;2.60;;;;;;;12.14;76.62;101634.79;216035;1254;61227;-74
2023/05/19 07:44:44;;;;;;;7.60;3.10;;;;;;;12.17;76.68;101630.70;215930;1253;61369;-74
2023/05/19 07:49:37;;;;;;;5.50;3.10;;;;;;;12.25;76.66;101625.15;215659;1253;61946;-73
2023/05/19 07:54:30;;;;;;;7.70;3.70;;;;;;;12.36;76.14;101628.19;215909;1253;61420;-73
2023/05/19 07:59:23;;;;;;;16.20;4.70;;;;;;;12.47;75.70;101623.06;215886;1253;61368;-74
2023/05/19 08:04:16;;;;;;;14.50;4.90;;;;;;;12.61;75.70;101623.56;215910;1253;61242;-74
2023/05/19 08:09:09;;;;;;;6.30;3.40;;;;;;;12.65;75.51;101622.43;215911;1253;65612;-74
2023/05/19 08:14:02;;;;;;;5.80;3.40;;;;;;;12.64;75.37;101621.37;216278;1253;61365;-74
2023/05/19 08:18:55;;;;;;;6.70;3.50;;;;;;;12.74;75.21;101617.08;216036;1253;75425;-74
2023/05/19 08:23:48;;;;;;;7.80;3.90;;;;;;;12.86;74.71;101612.83;216056;1253;61249;-75
2023/05/19 08:28:41;;;;;;;9.10;4.20;;;;;;;13.00;74.40;101613.29;216099;1253;61347;-75
2023/05/19 08:33:34;;;;;;;6.40;3.90;;;;;;;13.21;73.92;101616.52;216210;1253;61784;-74
2023/05/19 08:38:27;;;;;;;6.60;4.00;;;;;;;13.25;73.88;101616.42;215989;1253;61254;-75
2023/05/19 08:43:20;;;;;;;11.40;3.70;;;;;;;13.25;73.68;101620.61;216069;1253;61333;-74
2023/05/19 08:48:16;;;;;;;12.00;4.40;;;;;;;13.22;73.50;101625.25;215937;1253;72687;-74
2023/05/19 08:53:21;;;;;;;10.20;5.40;;;;;;;13.27;73.55;101624.82;216111;1253;61710;-74
2023/05/19 08:58:26;;;;;;;11.00;5.00;;;;;;;13.35;73.31;101626.58;215936;1255;67732;-74
2023/05/19 09:03:21;;;;;;;10.50;5.20;;;;;;;13.52;73.16;101626.56;216036;1253;61246;-73
2023/05/19 09:08:16;;;;;;;10.20;4.50;;;;;;;13.66;73.04;101628.41;215974;1253;74598;-74
2023/05/19 09:13:09;;;;;;;7.80;4.80;;;;;;;13.64;72.89;101623.14;215931;1255;72718;-74
2023/05/19 09:18:08;;;;;;;8.70;4.40;;;;;;;13.69;72.85;101622.54;215948;1253;61365;-74
2023/05/19 09:23:02;;;;;;;9.70;4.80;;;;;;;13.69;72.86;101622.02;215897;1253;66073;-73
2023/05/19 09:27:55;;;;;;;9.20;5.70;;;;;;;13.69;72.81;101621.50;215948;1253;62035;-74
2023/05/19 09:32:48;;;;;;;12.40;4.80;;;;;;;13.67;72.45;101621.27;215870;1253;75814;-74
2023/05/19 09:37:41;;;;;;;13.50;6.60;;;;;;;13.61;72.08;101620.81;215853;1253;61237;-74
2023/05/19 09:42:37;;;;;;;7.90;4.30;;;;;;;13.58;72.29;101619.53;216010;1253;61346;-74
2023/05/19 09:47:37;;;;;;;9.30;5.30;;;;;;;13.58;72.25;101620.23;216045;1252;67341;-74
2023/05/19 09:52:30;;;;;;;12.40;6.00;;;;;;;13.64;72.28;101626.63;216205;1256;61337;-73
2023/05/19 09:57:27;;;;;;;8.40;4.40;;;;;;;13.76;72.21;101623.18;216269;1253;61318;-74
2023/05/19 10:02:23;;;;;;;11.00;5.10;;;;;;;13.96;71.96;101619.71;215949;1254;71516;-74
2023/05/19 10:07:18;;;;;;;9.70;5.40;;;;;;;14.16;71.48;101619.34;216107;1253;61463;-74
2023/05/19 10:12:13;;;;;;;14.10;5.70;;;;;;;14.32;71.70;101620.30;215969;1253;66929;-74
2023/05/19 10:17:08;;;;;;;9.10;4.60;;;;;;;14.32;71.17;101618.72;216216;1253;61278;-72
2023/05/19 10:22:01;;;;;;;10.00;5.70;;;;;;;14.33;71.13;101613.34;216202;1257;74532;-74
2023/05/19 10:27:03;;;;;;;9.40;5.80;;;;;;;14.42;71.12;101610.52;216315;1256;61533;-74
2023/05/19 10:32:02;;;;;;;13.00;5.60;;;;;;;14.47;70.57;101606.93;216003;1257;61332;-74
2023/05/19 10:37:12;;;;;;;10.70;4.60;;;;;;;14.56;70.52;101602.70;216333;1256;68198;-74
2023/05/19 10:42:33;;;;;;;11.40;5.90;;;;;;;14.62;70.39;101603.52;216014;1255;61210;-74
2023/05/19 10:47:27;;;;;;;10.10;4.50;;;;;;;14.55;70.44;101605.48;215974;1256;73569;-74
2023/05/19 10:52:22;;;;;;;12.20;5.40;;;;;;;14.60;70.09;101603.49;216028;1257;72621;-73
2023/05/19 10:57:20;;;;;;;7.90;4.60;;;;;;;14.71;70.15;101598.25;216080;1253;61222;-74
2023/05/19 11:02:42;;;;;;;11.30;4.60;;;;;;;14.72;70.17;101598.78;215945;1256;66399;-74
2023/05/19 11:07:36;;;;;;;9.50;4.70;;;;;;;14.72;70.09;101601.23;215860;1259;61252;-75
2023/05/19 11:12:43;;;;;;;9.60;5.00;;;;;;;14.75;69.82;101603.88;215883;1254;74467;-73
2023/05/19 11:17:36;;;;;;;7.70;4.70;;;;;;;14.77;69.99;101602.34;215901;1254;71480;-74
2023/05/19 11:22:29;;;;;;;12.10;4.80;;;;;;;14.81;69.80;101602.40;216189;1256;61280;-74
2023/05/19 11:27:39;;;;;;;11.60;5.10;;;;;;;14.89;69.73;101603.20;216279;1255;61214;-74
2023/05/19 11:32:33;;;;;;;7.80;5.10;;;;;;;15.09;69.54;101606.06;216088;1256;61291;-74
2023/05/19 11:37:28;;;;;;;8.60;4.70;;;;;;;15.15;69.29;101607.36;216085;1254;75388;-74
2023/05/19 11:42:21;;;;;;;7.30;5.00;;;;;;;15.28;69.14;101604.39;216010;1254;72665;-74
2023/05/19 11:47:15;;;;;;;12.40;5.40;;;;;;;15.50;68.98;101602.00;216001;1254;61259;-74
2023/05/19 11:52:08;;;;;;;8.30;5.10;;;;;;;15.55;68.75;101601.02;215986;1254;66604;-74
2023/05/19 11:57:02;;;;;;;25.40;7.10;;;;;;;15.53;68.64;101600.30;216331;1254;61260;-76
2023/05/19 12:01:55;;;;;;;10.10;5.50;;;;;;;15.51;68.60;101601.84;215976;1254;73421;-75
2023/05/19 12:06:52;;;;;;;6.60;5.10;;;;;;;15.40;68.32;101603.64;215972;1254;61262;-73
2023/05/19 12:11:45;;;;;;;7.30;4.60;;;;;;;15.30;68.56;101605.11;215954;1253;61248;-75
2023/05/19 12:16:40;;;;;;;7.80;4.90;;;;;;;15.38;68.53;101610.44;216074;1252;65781;-74
2023/05/19 12:21:34;;;;;;;8.40;5.30;;;;;;;15.43;68.28;101609.27;216277;1254;61347;-73
2023/05/19 12:26:27;;;;;;;10.50;5.20;;;;;;;15.41;68.26;101605.76;216151;1253;74731;-74
2023/05/19 12:31:22;;;;;;;7.80;4.70;;;;;;;15.37;68.34;101605.88;216022;1254;72700;-74
2023/05/19 12:36:16;;;;;;;5.80;4.50;;;;;;;15.29;68.34;101607.19;216102;1256;61259;-74
2023/05/19 12:41:12;;;;;;;12.70;4.70;;;;;;;15.23;68.22;101610.08;216105;1253;67932;-74
2023/05/19 12:46:12;;;;;;;7.70;4.80;;;;;;;15.17;68.58;101606.16;216043;1253;61254;-74
2023/05/19 12:51:05;;;;;;;7.00;4.00;;;;;;;15.17;68.47;101604.95;216190;1254;74643;-74
2023/05/19 12:55:59;;;;;;;8.90;4.50;;;;;;;15.29;68.50;101604.91;216052;1252;74342;-74
2023/05/19 13:00:59;;;;;;;6.40;5.10;;;;;;;15.50;68.62;101597.64;215930;1256;61900;-74
2023/05/19 13:05:52;;;;;;;7.50;5.00;;;;;;;15.59;68.03;101598.79;216395;1253;66747;-74
2023/05/19 13:10:47;;;;;;;12.10;5.20;;;;;;;15.67;68.06;101596.77;216153;1254;61246;-74
2023/05/19 13:15:43;;;;;;;5.80;4.50;;;;;;;15.77;68.27;101600.73;216107;1256;74573;-74
2023/05/19 13:20:39;;;;;;;6.50;4.50;;;;;;;15.74;67.87;101600.36;216019;1254;71936;-74
2023/05/19 13:25:35;;;;;;;7.00;4.60;;;;;;;15.70;68.01;101595.40;216145;1254;61359;-74
2023/05/19 13:30:28;;;;;;;6.00;5.00;;;;;;;15.77;68.17;101599.86;216022;1254;66797;-76
2023/05/19 13:35:21;;;;;;;9.10;6.00;;;;;;;15.80;68.00;101596.40;216080;1255;61384;-74
2023/05/19 13:40:15;;;;;;;9.10;5.50;;;;;;;15.67;67.77;101593.27;216148;1255;72783;-74
2023/05/19 13:45:09;;;;;;;7.70;5.80;;;;;;;15.52;68.25;101594.00;215864;1254;72743;-75
2023/05/19 13:50:04;;;;;;;7.80;4.30;;;;;;;15.40;68.33;101595.61;216105;1254;61260;-74
2023/05/19 13:54:57;;;;;;;11.90;5.50;;;;;;;15.23;68.47;101594.54;216126;1256;66979;-74
2023/05/19 13:59:50;;;;;;;6.20;4.20;;;;;;;15.13;68.70;101598.44;215891;1254;61279;-74
2023/05/19 14:05:04;;;;;;;9.20;4.90;;;;;;;15.07;69.07;101596.44;216045;1254;74478;-74
2023/05/19 14:09:57;;;;;;;10.50;5.30;;;;;;;15.13;69.20;101592.15;216297;1252;72481;-74
2023/05/19 14:14:50;;;;;;;9.10;5.00;;;;;;;15.20;69.12;101591.36;216112;1252;61406;-75
2023/05/19 14:19:43;;;;;;;6.80;5.90;;;;;;;15.24;68.82;101597.36;216066;1252;61218;-74
2023/05/19 14:24:36;;;;;;;8.50;5.80;;;;;;;15.25;68.98;101593.36;215879;1254;61241;-75
2023/05/19 14:29:29;;;;;;;12.30;5.60;;;;;;;15.27;68.97;101589.35;215784;1254;61259;-74
2023/05/19 14:34:22;;;;;;;9.60;6.00;;;;;;;15.35;68.98;101592.59;215922;1253;71824;-74
2023/05/19 14:39:15;;;;;;;9.20;6.50;;;;;;;15.39;68.67;101594.02;215697;1253;61260;-74
2023/05/19 14:44:08;;;;;;;6.30;5.20;;;;;;;15.37;68.72;101599.94;215934;1255;61522;-74
2023/05/19 14:49:02;;;;;;;11.50;6.20;;;;;;;15.33;68.93;101595.89;215734;1254;159698;-76
2023/05/19 14:53:55;;;;;;;9.80;5.50;;;;;;;15.36;69.08;101593.64;215721;1254;75196;-72
2023/05/19 14:58:48;;;;;;;9.40;5.50;;;;;;;15.31;68.90;101593.23;215717;1254;72937;-75
2023/05/19 15:03:41;;;;;;;9.40;5.20;;;;;;;15.21;69.16;101595.92;215781;1254;61241;-77
2023/05/19 15:08:33;;;;;;;6.50;5.00;;;;;;;15.14;69.39;101598.09;215759;1254;61096;-75
2023/05/19 15:13:26;;;;;;;10.00;6.10;;;;;;;15.06;69.62;101600.11;215842;1254;61877;-74
2023/05/19 15:18:19;;;;;;;5.80;4.90;;;;;;;14.99;69.74;101605.59;215680;1257;65242;-73
2023/05/19 15:23:12;;;;;;;7.00;4.80;;;;;;;14.93;69.92;101608.13;215596;1254;61886;-74
2023/05/19 15:28:05;;;;;;;7.30;5.00;;;;;;;14.90;70.01;101606.68;215698;1254;61358;-74
2023/05/19 15:32:58;;;;;;;8.00;5.60;;;;;;;14.91;70.24;101600.77;215789;1257;72139;-74
2023/05/19 15:37:51;;;;;;;10.00;5.30;;;;;;;14.94;70.36;101599.77;215762;1254;61276;-74
2023/05/19 15:42:44;;;;;;;8.40;5.40;;;;;;;14.95;70.40;101602.05;215748;1257;61226;-74
2023/05/19 15:47:37;;;;;;;9.50;6.20;;;;;;;14.93;70.53;101596.44;215829;1254;61419;-74
2023/05/19 15:52:30;;;;;;;9.20;5.60;;;;;;;14.88;70.41;101591.33;215909;1254;61329;-74
2023/05/19 15:57:23;;;;;;;8.10;5.30;;;;;;;14.85;70.62;101590.40;215749;1254;61242;-75
2023/05/19 16:02:16;;;;;;;11.80;6.60;;;;;;;14.82;71.09;101583.55;215767;1254;61213;-74
2023/05/19 16:07:09;;;;;;;8.90;7.40;;;;;;;14.79;71.19;101582.99;215748;1254;61235;-74
2023/05/19 16:12:02;;;;;;;8.30;6.10;;;;;;;14.76;71.54;101582.43;215769;1254;61369;-73
2023/05/19 16:16:55;;;;;;;7.90;5.70;;;;;;;14.69;71.57;101578.84;215856;1254;61352;-74
2023/05/19 16:21:48;;;;;;;9.00;6.40;;;;;;;14.64;71.57;101580.86;215900;1254;61276;-74
2023/05/19 16:26:41;;;;;;;9.90;6.40;;;;;;;14.61;71.58;101582.73;215733;1254;61214;-74
2023/05/19 16:31:34;;;;;;;8.40;7.60;;;;;;;14.59;71.79;101581.83;215668;1254;61244;-75
2023/05/19 16:36:27;;;;;;;16.00;8.80;;;;;;;14.55;71.96;101581.58;215757;1254;61230;-74
2023/05/19 16:41:20;;;;;;;12.10;6.80;;;;;;;14.53;72.20;101582.08;215769;1254;61357;-73
2023/05/19 16:46:13;;;;;;;9.60;7.40;;;;;;;14.48;72.46;101583.92;215755;1254;61271;-75
2023/05/19 16:51:06;;;;;;;10.40;7.10;;;;;;;14.45;72.70;101583.00;215798;1254;61236;-75
2023/05/19 16:55:59;;;;;;;9.20;6.70;;;;;;;14.40;73.17;101583.29;215796;1254;61273;-74
2023/05/19 17:00:52;;;;;;;8.50;7.40;;;;;;;14.36;73.62;101583.23;215445;1254;61247;-75
2023/05/19 17:05:45;;;;;;;7.50;6.60;;;;;;;14.30;73.88;101580.69;215656;1257;61254;-74
2023/05/19 17:10:38;;;;;;;8.90;7.30;;;;;;;14.25;73.97;101583.57;215574;1254;61306;-74
2023/05/19 17:15:31;;;;;;;8.70;7.10;;;;;;;14.20;74.34;101581.41;215625;1257;61756;-74
2023/05/19 17:20:24;;;;;;;9.70;7.30;;;;;;;14.15;74.74;101578.36;215596;1255;61382;-74
2023/05/19 17:25:17;;;;;;;8.30;6.20;;;;;;;14.11;75.20;101578.64;215692;1254;61247;-74
2023/05/19 17:30:11;;;;;;;10.90;7.50;;;;;;;14.04;75.15;101581.67;215692;1254;61457;-74
2023/05/19 17:35:05;;;;;;;10.40;6.80;;;;;;;13.98;75.22;101576.33;215789;1255;67236;-75
2023/05/19 17:39:58;;;;;;;11.70;7.20;;;;;;;13.91;75.46;101578.31;215717;1254;61223;-74
2023/05/19 17:44:51;;;;;;;12.40;6.30;;;;;;;13.88;75.79;101578.96;215991;1254;61362;-75
2023/05/19 17:49:44;;;;;;;13.80;7.50;;;;;;;13.86;76.35;101582.05;215706;1254;72626;-74
2023/05/19 17:54:38;;;;;;;10.80;7.00;;;;;;;13.83;76.56;101585.33;215734;1254;61276;-74
2023/05/19 17:59:31;;;;;;;12.50;7.60;;;;;;;13.82;76.72;101588.60;215629;1254;67269;-74
2023/05/19 18:04:24;;;;;;;11.20;8.10;;;;;;;13.79;76.87;101587.33;215778;1254;61327;-74
2023/05/19 18:09:19;;;;;;;17.40;8.30;;;;;;;13.77;76.96;101588.34;215784;1254;74533;-74
2023/05/19 18:14:12;;;;;;;14.00;7.00;;;;;;;13.74;77.32;101588.65;215814;1257;73547;-74
2023/05/19 18:19:05;;;;;;;13.20;7.60;;;;;;;13.72;77.58;101587.05;215742;1254;61327;-74
2023/05/19 18:24:01;;;;;;;9.90;6.60;;;;;;;13.68;77.68;101585.76;215789;1254;68539;-74
2023/05/19 18:28:54;;;;;;;11.70;8.30;;;;;;;13.61;78.12;101584.94;215808;1254;61538;-74
2023/05/19 18:33:48;;;;;;;11.00;8.40;;;;;;;13.56;78.03;101587.64;215720;1254;61229;-74
2023/05/19 18:38:41;;;;;;;12.00;7.20;;;;;;;13.55;78.21;101596.48;215770;1257;71321;-74
2023/05/19 18:43:34;;;;;;;18.90;8.70;;;;;;;13.53;78.39;101603.77;215733;1254;61376;-74
2023/05/19 18:48:27;;;;;;;12.60;7.80;;;;;;;13.51;78.56;101610.35;215819;1254;61287;-74
2023/05/19 18:53:21;;;;;;;11.80;8.60;;;;;;;13.47;78.71;101619.16;215828;1254;61948;-74
2023/05/19 18:58:15;;;;;;;14.30;8.40;;;;;;;13.42;78.75;101622.20;215871;1254;75757;-74
2023/05/19 19:03:09;;;;;;;11.80;8.40;;;;;;;13.42;79.03;101625.48;215861;1255;72567;-74
2023/05/19 19:08:04;;;;;;;12.30;7.60;;;;;;;13.40;79.26;101622.51;216002;1254;61373;-74
2023/05/19 19:12:57;;;;;;;12.70;8.40;;;;;;;13.35;79.50;101629.20;215980;1254;65848;-74
2023/05/19 19:17:50;;;;;;;8.50;7.50;;;;;;;13.33;79.57;101634.73;215911;1254;61329;-74
2023/05/19 19:22:43;;;;;;;11.10;8.20;;;;;;;13.34;79.70;101636.84;215794;1253;61284;-74
2023/05/19 19:27:35;;;;;;;9.40;8.30;;;;;;;13.33;79.84;101635.77;215790;1257;61865;-74
2023/05/19 19:32:30;;;;;;;11.60;8.00;;;;;;;13.31;79.95;101636.96;215904;1254;61266;-74
2023/05/19 19:37:23;;;;;;;11.50;8.40;;;;;;;13.30;80.08;101634.83;215784;1254;67150;-74
2023/05/19 19:42:16;;;;;;;15.90;9.40;;;;;;;13.29;80.19;101640.20;215885;1254;61253;-74
2023/05/19 19:47:08;;;;;;;12.90;9.90;;;;;;;13.28;80.36;101641.39;215900;1254;61296;-74
2023/05/19 19:52:01;;;;;;;15.00;9.60;;;;;;;13.27;80.35;101644.48;215786;1254;61365;-74
2023/05/19 19:56:54;;;;;;;18.40;11.30;;;;;;;13.24;80.58;101642.52;215858;1254;61273;-74
2023/05/19 20:01:47;;;;;;;18.90;11.40;;;;;;;13.23;80.66;101645.28;215738;1254;61263;-74
2023/05/19 20:06:40;;;;;;;19.10;10.50;;;;;;;13.24;80.95;101644.25;215740;1255;61296;-74
2023/05/19 20:11:33;;;;;;;15.40;12.00;;;;;;;13.25;81.09;101646.03;215795;1254;61352;-74
2023/05/19 20:16:26;;;;;;;15.50;13.40;;;;;;;13.26;81.16;101642.74;215733;1254;65219;-73
2023/05/19 20:21:19;;;;;;;15.80;13.00;;;;;;;13.26;81.15;101641.87;215715;1255;61355;-74
2023/05/19 20:26:12;;;;;;;16.60;12.30;;;;;;;13.26;81.26;101637.50;215811;1254;61885;-74
2023/05/19 20:31:05;;;;;;;17.40;13.10;;;;;;;13.24;81.25;101637.82;215691;1254;61475;-74
2023/05/19 20:35:58;;;;;;;19.50;13.30;;;;;;;13.24;81.37;101640.09;215799;1254;61248;-74
2023/05/19 20:40:51;;;;;;;17.10;12.60;;;;;;;13.22;81.43;101641.44;215832;1254;61289;-74
2023/05/19 20:45:45;;;;;;;16.50;11.10;;;;;;;13.21;81.53;101643.14;215736;1254;61279;-74
2023/05/19 20:50:39;;;;;;;13.60;10.70;;;;;;;13.20;81.61;101647.14;215729;1254;68216;-74
2023/05/19 20:55:32;;;;;;;15.70;11.30;;;;;;;13.17;81.59;101650.54;215695;1254;61298;-74
2023/05/19 21:00:25;;;;;;;17.40;10.80;;;;;;;13.15;81.79;101651.04;215997;1254;74572;-74
2023/05/19 21:05:22;;;;;;;14.90;11.80;;;;;;;13.12;81.95;101652.73;215693;1254;73138;-74
2023/05/19 21:10:16;;;;;;;18.20;11.60;;;;;;;13.11;81.96;101655.83;215556;1254;61180;-74
2023/05/19 21:15:10;;;;;;;18.00;11.60;;;;;;;13.12;82.01;101652.16;215718;1254;65923;-73
2023/05/19 21:20:03;;;;;;;14.60;11.70;;;;;;;13.10;82.22;101652.48;215624;1254;61297;-74
2023/05/19 21:24:56;;;;;;;13.10;10.60;;;;;;;13.08;82.30;101654.35;215563;1254;74591;-74
2023/05/19 21:29:53;;;;;;;16.60;12.40;;;;;;;13.07;82.38;101657.48;215736;1255;72621;-74
2023/05/19 21:34:47;;;;;;;15.20;12.70;;;;;;;13.09;82.48;101653.33;215642;1254;61249;-74
2023/05/19 21:39:40;;;;;;;14.70;11.50;;;;;;;13.09;82.52;101654.21;215554;1254;66004;-73
2023/05/19 21:44:32;;;;;;;16.60;11.80;;;;;;;13.09;82.53;101656.66;215657;1255;61270;-74
2023/05/19 21:49:25;;;;;;;15.50;13.50;;;;;;;13.09;82.71;101652.98;215733;1257;61340;-74
2023/05/19 21:54:18;;;;;;;14.90;12.70;;;;;;;13.10;82.70;101656.86;215763;1255;61247;-74
2023/05/19 21:59:11;;;;;;;18.90;12.70;;;;;;;13.10;82.59;101652.14;215660;1254;61363;-74
2023/05/19 22:04:05;;;;;;;15.90;12.40;;;;;;;13.08;82.74;101651.94;215535;1254;61344;-73
2023/05/19 22:08:59;;;;;;;15.20;11.60;;;;;;;13.07;82.71;101649.29;215678;1257;61293;-73
2023/05/19 22:13:53;;;;;;;16.10;11.50;;;;;;;13.05;82.78;101647.17;215773;1254;75584;-74
2023/05/19 22:18:46;;;;;;;15.40;11.90;;;;;;;13.04;82.97;101649.05;215707;1254;72603;-74
2023/05/19 22:23:39;;;;;;;16.30;13.60;;;;;;;13.03;83.01;101648.51;215613;1254;61241;-73
2023/05/19 22:28:32;;;;;;;14.20;12.60;;;;;;;13.02;83.12;101650.91;215538;1254;66469;-74